sensor_id;sensor_type;location;lat;lon;timestamp;P1;durP1;ratioP1;P2;durP2;ratioP2
23360;SDS011;11852;50.082;18.554;2024-01-16T00:00:48;13.5;;;6.3;;
23360;SDS011;11852;50.082;18.554;2024-01-16T00:01:52;12.9;;;6.3;;
23360;SDS011;11852;50.082;18.554;2024-01-16T00:02:57;11.6;;;5.7;;
23360;SDS011;11852;50.082;18.554;2024-01-16T00:04:05;11.8;;;5.4;;
23360;SDS011;11852;50.082;18.554;2024-01-16T00:05:10;15.1;;;6.8;;
23360;SDS011;11852;50.082;18.554;2024-01-16T00:06:14;17.1;;;8.8;;
23360;SDS011;11852;50.082;18.554;2024-01-16T00:07:19;22.6;;;11.6;;
23360;SDS011;11852;50.082;18.554;2024-01-16T00:08:26;15.8;;;7.9;;
23360;SDS011;11852;50.082;18.554;2024-01-16T00:09:34;14.4;;;7.1;;
23360;SDS011;11852;50.082;18.554;2024-01-16T00:10:39;13.4;;;6.9;;
23360;SDS011;11852;50.082;18.554;2024-01-16T00:11:47;14.4;;;6.8;;
23360;SDS011;11852;50.082;18.554;2024-01-16T00:12:53;17.2;;;7.5;;
23360;SDS011;11852;50.082;18.554;2024-01-16T00:13:57;15.9;;;7.8;;
23360;SDS011;11852;50.082;18.554;2024-01-16T00:15:02;13.3;;;6.4;;
23360;SDS011;11852;50.082;18.554;2024-01-16T00:16:07;16.8;;;8.3;;
23360;SDS011;11852;50.082;18.554;2024-01-16T00:17:12;16.6;;;8.1;;
23360;SDS011;11852;50.082;18.554;2024-01-16T00:18:17;12.5;;;6.3;;
23360;SDS011;11852;50.082;18.554;2024-01-16T00:19:25;14.3;;;7.1;;
23360;SDS011;11852;50.082;18.554;2024-01-16T00:20:29;15.8;;;6.6;;
23360;SDS011;11852;50.082;18.554;2024-01-16T00:21:40;15.8;;;6.6;;
23360;SDS011;11852;50.082;18.554;2024-01-16T00:22:47;14.1;;;6.6;;
23360;SDS011;11852;50.082;18.554;2024-01-16T00:23:52;15.8;;;6.9;;
23360;SDS011;11852;50.082;18.554;2024-01-16T00:25:02;13.5;;;6.3;;
23360;SDS011;11852;50.082;18.554;2024-01-16T00:26:07;15.3;;;6.8;;
23360;SDS011;11852;50.082;18.554;2024-01-16T00:27:12;17.3;;;7.1;;
23360;SDS011;11852;50.082;18.554;2024-01-16T00:28:17;18.0;;;7.7;;
23360;SDS011;11852;50.082;18.554;2024-01-16T00:29:22;15.6;;;6.1;;
23360;SDS011;11852;50.082;18.554;2024-01-16T00:30:26;15.0;;;6.4;;
23360;SDS011;11852;50.082;18.554;2024-01-16T00:31:31;17.0;;;6.9;;
23360;SDS011;11852;50.082;18.554;2024-01-16T00:32:38;12.5;;;6.2;;
23360;SDS011;11852;50.082;18.554;2024-01-16T00:33:42;14.3;;;6.2;;
23360;SDS011;11852;50.082;18.554;2024-01-16T00:34:49;13.0;;;6.3;;
23360;SDS011;11852;50.082;18.554;2024-01-16T00:35:54;11.4;;;5.9;;
23360;SDS011;11852;50.082;18.554;2024-01-16T00:36:59;12.1;;;5.8;;
23360;SDS011;11852;50.082;18.554;2024-01-16T00:38:04;12.3;;;6.0;;
23360;SDS011;11852;50.082;18.554;2024-01-16T00:39:09;12.5;;;6.3;;
23360;SDS011;11852;50.082;18.554;2024-01-16T00:40:13;13.6;;;6.5;;
23360;SDS011;11852;50.082;18.554;2024-01-16T00:41:26;12.0;;;6.1;;
23360;SDS011;11852;50.082;18.554;2024-01-16T00:42:31;13.5;;;6.4;;
23360;SDS011;11852;50.082;18.554;2024-01-16T00:43:36;13.0;;;6.2;;
23360;SDS011;11852;50.082;18.554;2024-01-16T00:44:46;13.4;;;6.2;;
23360;SDS011;11852;50.082;18.554;2024-01-16T00:45:51;13.0;;;6.1;;
23360;SDS011;11852;50.082;18.554;2024-01-16T00:46:56;11.5;;;6.1;;
23360;SDS011;11852;50.082;18.554;2024-01-16T00:48:00;11.0;;;5.2;;
23360;SDS011;11852;50.082;18.554;2024-01-16T00:49:08;12.7;;;5.8;;
23360;SDS011;11852;50.082;18.554;2024-01-16T00:50:13;13.1;;;6.5;;
23360;SDS011;11852;50.082;18.554;2024-01-16T00:51:18;11.1;;;5.4;;
23360;SDS011;11852;50.082;18.554;2024-01-16T00:52:23;10.3;;;5.4;;
23360;SDS011;11852;50.082;18.554;2024-01-16T00:53:27;10.2;;;5.7;;
23360;SDS011;11852;50.082;18.554;2024-01-16T00:54:32;8.6;;;5.1;;
23360;SDS011;11852;50.082;18.554;2024-01-16T00:55:40;9.8;;;5.6;;
23360;SDS011;11852;50.082;18.554;2024-01-16T00:56:45;8.7;;;4.8;;
23360;SDS011;11852;50.082;18.554;2024-01-16T00:57:51;15.0;;;7.5;;
23360;SDS011;11852;50.082;18.554;2024-01-16T00:58:55;9.2;;;4.6;;
23360;SDS011;11852;50.082;18.554;2024-01-16T01:00:03;10.2;;;5.4;;
23360;SDS011;11852;50.082;18.554;2024-01-16T01:01:07;9.7;;;5.2;;
23360;SDS011;11852;50.082;18.554;2024-01-16T01:02:12;7.5;;;4.1;;
23360;SDS011;11852;50.082;18.554;2024-01-16T01:03:18;9.2;;;5.1;;
23360;SDS011;11852;50.082;18.554;2024-01-16T01:04:27;9.0;;;4.8;;
23360;SDS011;11852;50.082;18.554;2024-01-16T01:05:31;9.3;;;5.1;;
23360;SDS011;11852;50.082;18.554;2024-01-16T01:06:38;9.0;;;4.7;;
23360;SDS011;11852;50.082;18.554;2024-01-16T01:07:45;8.9;;;4.8;;
23360;SDS011;11852;50.082;18.554;2024-01-16T01:08:54;8.8;;;5.0;;
23360;SDS011;11852;50.082;18.554;2024-01-16T01:09:59;8.7;;;5.1;;
23360;SDS011;11852;50.082;18.554;2024-01-16T01:11:06;9.1;;;4.8;;
23360;SDS011;11852;50.082;18.554;2024-01-16T01:12:14;9.1;;;5.3;;
23360;SDS011;11852;50.082;18.554;2024-01-16T01:13:22;8.2;;;4.6;;
23360;SDS011;11852;50.082;18.554;2024-01-16T01:14:26;10.5;;;5.8;;
23360;SDS011;11852;50.082;18.554;2024-01-16T01:15:35;10.5;;;5.8;;
23360;SDS011;11852;50.082;18.554;2024-01-16T01:16:40;9.4;;;5.5;;
23360;SDS011;11852;50.082;18.554;2024-01-16T01:17:45;10.3;;;5.6;;
23360;SDS011;11852;50.082;18.554;2024-01-16T01:18:57;9.8;;;5.5;;
23360;SDS011;11852;50.082;18.554;2024-01-16T01:20:06;11.5;;;6.4;;
23360;SDS011;11852;50.082;18.554;2024-01-16T01:21:12;11.3;;;5.9;;
23360;SDS011;11852;50.082;18.554;2024-01-16T01:22:19;10.8;;;5.9;;
23360;SDS011;11852;50.082;18.554;2024-01-16T01:23:26;10.7;;;6.0;;
23360;SDS011;11852;50.082;18.554;2024-01-16T01:24:33;9.0;;;5.0;;
23360;SDS011;11852;50.082;18.554;2024-01-16T01:25:38;9.4;;;5.2;;
23360;SDS011;11852;50.082;18.554;2024-01-16T01:26:43;9.4;;;5.2;;
23360;SDS011;11852;50.082;18.554;2024-01-16T01:27:48;10.7;;;6.0;;
23360;SDS011;11852;50.082;18.554;2024-01-16T01:28:56;10.1;;;5.4;;
23360;SDS011;11852;50.082;18.554;2024-01-16T01:30:01;9.7;;;5.3;;
23360;SDS011;11852;50.082;18.554;2024-01-16T01:31:08;9.9;;;5.5;;
23360;SDS011;11852;50.082;18.554;2024-01-16T01:32:10;9.0;;;5.2;;
23360;SDS011;11852;50.082;18.554;2024-01-16T01:33:15;10.3;;;6.0;;
23360;SDS011;11852;50.082;18.554;2024-01-16T01:34:20;9.9;;;5.9;;
23360;SDS011;11852;50.082;18.554;2024-01-16T01:35:25;10.5;;;5.3;;
23360;SDS011;11852;50.082;18.554;2024-01-16T01:36:32;9.5;;;5.7;;
23360;SDS011;11852;50.082;18.554;2024-01-16T01:37:37;10.8;;;5.7;;
23360;SDS011;11852;50.082;18.554;2024-01-16T01:38:42;9.3;;;5.5;;
23360;SDS011;11852;50.082;18.554;2024-01-16T01:39:46;10.2;;;5.6;;
23360;SDS011;11852;50.082;18.554;2024-01-16T01:40:54;9.9;;;5.5;;
23360;SDS011;11852;50.082;18.554;2024-01-16T01:41:59;9.7;;;5.4;;
23360;SDS011;11852;50.082;18.554;2024-01-16T01:44:21;9.4;;;5.3;;
23360;SDS011;11852;50.082;18.554;2024-01-16T01:45:25;10.3;;;5.9;;
23360;SDS011;11852;50.082;18.554;2024-01-16T01:46:30;11.0;;;6.2;;
23360;SDS011;11852;50.082;18.554;2024-01-16T01:47:35;11.5;;;5.7;;
23360;SDS011;11852;50.082;18.554;2024-01-16T01:48:41;12.7;;;6.2;;
23360;SDS011;11852;50.082;18.554;2024-01-16T01:49:46;12.1;;;6.5;;
23360;SDS011;11852;50.082;18.554;2024-01-16T01:50:50;14.8;;;8.4;;
23360;SDS011;11852;50.082;18.554;2024-01-16T01:51:55;15.0;;;7.8;;
23360;SDS011;11852;50.082;18.554;2024-01-16T01:53:03;12.7;;;6.3;;
23360;SDS011;11852;50.082;18.554;2024-01-16T01:54:08;11.2;;;6.3;;
23360;SDS011;11852;50.082;18.554;2024-01-16T01:55:13;9.9;;;5.4;;
23360;SDS011;11852;50.082;18.554;2024-01-16T01:56:18;10.3;;;4.8;;
23360;SDS011;11852;50.082;18.554;2024-01-16T01:57:25;7.6;;;4.1;;
23360;SDS011;11852;50.082;18.554;2024-01-16T01:58:30;8.2;;;4.4;;
23360;SDS011;11852;50.082;18.554;2024-01-16T01:59:38;8.8;;;4.0;;
23360;SDS011;11852;50.082;18.554;2024-01-16T02:00:43;8.9;;;4.5;;
23360;SDS011;11852;50.082;18.554;2024-01-16T02:01:48;7.9;;;4.2;;
23360;SDS011;11852;50.082;18.554;2024-01-16T02:02:52;8.3;;;4.2;;
23360;SDS011;11852;50.082;18.554;2024-01-16T02:03:57;7.3;;;4.1;;
23360;SDS011;11852;50.082;18.554;2024-01-16T02:05:02;9.0;;;4.5;;
23360;SDS011;11852;50.082;18.554;2024-01-16T02:06:12;9.0;;;4.1;;
23360;SDS011;11852;50.082;18.554;2024-01-16T02:07:17;6.5;;;3.6;;
23360;SDS011;11852;50.082;18.554;2024-01-16T02:08:22;8.0;;;4.6;;
23360;SDS011;11852;50.082;18.554;2024-01-16T02:09:32;8.3;;;4.3;;
23360;SDS011;11852;50.082;18.554;2024-01-16T02:10:37;8.8;;;4.4;;
23360;SDS011;11852;50.082;18.554;2024-01-16T02:11:47;7.9;;;4.6;;
23360;SDS011;11852;50.082;18.554;2024-01-16T02:12:52;8.4;;;4.6;;
23360;SDS011;11852;50.082;18.554;2024-01-16T02:13:56;8.0;;;4.5;;
23360;SDS011;11852;50.082;18.554;2024-01-16T02:15:01;9.1;;;4.6;;
23360;SDS011;11852;50.082;18.554;2024-01-16T02:16:06;8.5;;;4.9;;
23360;SDS011;11852;50.082;18.554;2024-01-16T02:17:11;7.9;;;4.6;;
23360;SDS011;11852;50.082;18.554;2024-01-16T02:18:18;8.1;;;4.6;;
23360;SDS011;11852;50.082;18.554;2024-01-16T02:19:22;7.8;;;4.4;;
23360;SDS011;11852;50.082;18.554;2024-01-16T02:20:27;7.8;;;4.4;;
23360;SDS011;11852;50.082;18.554;2024-01-16T02:21:37;7.1;;;4.2;;
23360;SDS011;11852;50.082;18.554;2024-01-16T02:22:42;7.4;;;4.2;;
23360;SDS011;11852;50.082;18.554;2024-01-16T02:23:46;7.5;;;4.7;;
23360;SDS011;11852;50.082;18.554;2024-01-16T02:24:51;7.7;;;4.4;;
23360;SDS011;11852;50.082;18.554;2024-01-16T02:25:56;7.1;;;4.0;;
23360;SDS011;11852;50.082;18.554;2024-01-16T02:27:00;8.1;;;4.3;;
23360;SDS011;11852;50.082;18.554;2024-01-16T02:28:08;6.7;;;3.8;;
23360;SDS011;11852;50.082;18.554;2024-01-16T02:29:13;6.8;;;4.2;;
23360;SDS011;11852;50.082;18.554;2024-01-16T02:30:18;7.9;;;4.4;;
23360;SDS011;11852;50.082;18.554;2024-01-16T02:31:22;7.0;;;4.1;;
23360;SDS011;11852;50.082;18.554;2024-01-16T02:32:29;7.4;;;4.1;;
23360;SDS011;11852;50.082;18.554;2024-01-16T02:33:34;7.4;;;4.2;;
23360;SDS011;11852;50.082;18.554;2024-01-16T02:34:39;8.5;;;4.9;;
23360;SDS011;11852;50.082;18.554;2024-01-16T02:35:44;9.0;;;4.8;;
23360;SDS011;11852;50.082;18.554;2024-01-16T02:36:51;8.1;;;4.5;;
23360;SDS011;11852;50.082;18.554;2024-01-16T02:37:58;7.4;;;4.6;;
23360;SDS011;11852;50.082;18.554;2024-01-16T02:39:02;7.4;;;4.6;;
23360;SDS011;11852;50.082;18.554;2024-01-16T02:40:07;7.4;;;4.6;;
23360;SDS011;11852;50.082;18.554;2024-01-16T02:41:15;8.8;;;4.9;;
23360;SDS011;11852;50.082;18.554;2024-01-16T02:42:19;7.5;;;4.4;;
23360;SDS011;11852;50.082;18.554;2024-01-16T02:43:24;8.1;;;5.1;;
23360;SDS011;11852;50.082;18.554;2024-01-16T02:44:29;7.8;;;4.6;;
23360;SDS011;11852;50.082;18.554;2024-01-16T02:45:34;8.1;;;4.4;;
23360;SDS011;11852;50.082;18.554;2024-01-16T02:46:39;7.8;;;4.9;;
23360;SDS011;11852;50.082;18.554;2024-01-16T02:47:43;8.5;;;5.0;;
23360;SDS011;11852;50.082;18.554;2024-01-16T02:48:51;9.3;;;5.2;;
23360;SDS011;11852;50.082;18.554;2024-01-16T02:49:56;9.5;;;5.5;;
23360;SDS011;11852;50.082;18.554;2024-01-16T02:51:01;9.0;;;5.5;;
23360;SDS011;11852;50.082;18.554;2024-01-16T02:52:05;8.4;;;5.3;;
23360;SDS011;11852;50.082;18.554;2024-01-16T02:53:10;10.0;;;5.4;;
23360;SDS011;11852;50.082;18.554;2024-01-16T02:54:15;9.7;;;5.7;;
23360;SDS011;11852;50.082;18.554;2024-01-16T02:55:20;9.1;;;5.1;;
23360;SDS011;11852;50.082;18.554;2024-01-16T02:56:29;9.4;;;5.1;;
23360;SDS011;11852;50.082;18.554;2024-01-16T02:57:35;8.5;;;4.7;;
23360;SDS011;11852;50.082;18.554;2024-01-16T02:58:39;9.4;;;5.5;;
23360;SDS011;11852;50.082;18.554;2024-01-16T02:59:44;8.9;;;5.1;;
23360;SDS011;11852;50.082;18.554;2024-01-16T03:00:52;8.9;;;5.5;;
23360;SDS011;11852;50.082;18.554;2024-01-16T03:01:57;8.7;;;5.2;;
23360;SDS011;11852;50.082;18.554;2024-01-16T03:03:01;9.1;;;5.0;;
23360;SDS011;11852;50.082;18.554;2024-01-16T03:04:08;10.6;;;5.6;;
23360;SDS011;11852;50.082;18.554;2024-01-16T03:05:15;9.2;;;5.4;;
23360;SDS011;11852;50.082;18.554;2024-01-16T03:06:23;9.1;;;5.5;;
23360;SDS011;11852;50.082;18.554;2024-01-16T03:07:29;8.4;;;4.8;;
23360;SDS011;11852;50.082;18.554;2024-01-16T03:08:34;10.8;;;6.0;;
23360;SDS011;11852;50.082;18.554;2024-01-16T03:09:39;9.2;;;5.2;;
23360;SDS011;11852;50.082;18.554;2024-01-16T03:10:44;8.5;;;4.6;;
23360;SDS011;11852;50.082;18.554;2024-01-16T03:11:49;8.8;;;5.0;;
23360;SDS011;11852;50.082;18.554;2024-01-16T03:12:53;8.6;;;5.0;;
23360;SDS011;11852;50.082;18.554;2024-01-16T03:13:58;8.0;;;5.1;;
23360;SDS011;11852;50.082;18.554;2024-01-16T03:15:03;8.1;;;4.7;;
23360;SDS011;11852;50.082;18.554;2024-01-16T03:16:10;8.5;;;5.1;;
23360;SDS011;11852;50.082;18.554;2024-01-16T03:17:15;9.8;;;5.2;;
23360;SDS011;11852;50.082;18.554;2024-01-16T03:18:20;7.4;;;4.7;;
23360;SDS011;11852;50.082;18.554;2024-01-16T03:19:24;8.5;;;4.9;;
23360;SDS011;11852;50.082;18.554;2024-01-16T03:20:29;8.3;;;4.8;;
23360;SDS011;11852;50.082;18.554;2024-01-16T03:21:34;7.8;;;4.3;;
23360;SDS011;11852;50.082;18.554;2024-01-16T03:22:44;7.6;;;4.7;;
23360;SDS011;11852;50.082;18.554;2024-01-16T03:23:49;7.9;;;4.7;;
23360;SDS011;11852;50.082;18.554;2024-01-16T03:24:57;8.0;;;4.0;;
23360;SDS011;11852;50.082;18.554;2024-01-16T03:26:05;6.7;;;3.8;;
23360;SDS011;11852;50.082;18.554;2024-01-16T03:27:09;7.2;;;4.3;;
23360;SDS011;11852;50.082;18.554;2024-01-16T03:28:14;7.4;;;4.2;;
23360;SDS011;11852;50.082;18.554;2024-01-16T03:29:19;7.3;;;4.6;;
23360;SDS011;11852;50.082;18.554;2024-01-16T03:30:24;6.9;;;4.4;;
23360;SDS011;11852;50.082;18.554;2024-01-16T03:31:29;9.4;;;5.0;;
23360;SDS011;11852;50.082;18.554;2024-01-16T03:32:34;8.1;;;4.9;;
23360;SDS011;11852;50.082;18.554;2024-01-16T03:33:41;8.9;;;5.0;;
23360;SDS011;11852;50.082;18.554;2024-01-16T03:34:46;9.0;;;4.9;;
23360;SDS011;11852;50.082;18.554;2024-01-16T03:35:51;8.4;;;4.6;;
23360;SDS011;11852;50.082;18.554;2024-01-16T03:36:55;9.4;;;5.2;;
23360;SDS011;11852;50.082;18.554;2024-01-16T03:38:00;8.8;;;4.8;;
23360;SDS011;11852;50.082;18.554;2024-01-16T03:39:05;8.8;;;5.1;;
23360;SDS011;11852;50.082;18.554;2024-01-16T03:40:10;8.6;;;4.5;;
23360;SDS011;11852;50.082;18.554;2024-01-16T03:41:15;7.6;;;4.3;;
23360;SDS011;11852;50.082;18.554;2024-01-16T03:42:20;9.5;;;4.9;;
23360;SDS011;11852;50.082;18.554;2024-01-16T03:43:27;9.7;;;5.4;;
23360;SDS011;11852;50.082;18.554;2024-01-16T03:44:37;14.8;;;6.9;;
23360;SDS011;11852;50.082;18.554;2024-01-16T03:45:39;9.0;;;4.9;;
23360;SDS011;11852;50.082;18.554;2024-01-16T03:46:43;9.5;;;4.6;;
23360;SDS011;11852;50.082;18.554;2024-01-16T03:47:48;9.8;;;5.0;;
23360;SDS011;11852;50.082;18.554;2024-01-16T03:48:58;8.7;;;4.9;;
23360;SDS011;11852;50.082;18.554;2024-01-16T03:50:04;8.4;;;4.9;;
23360;SDS011;11852;50.082;18.554;2024-01-16T03:51:09;9.8;;;5.6;;
23360;SDS011;11852;50.082;18.554;2024-01-16T03:52:14;8.3;;;4.8;;
23360;SDS011;11852;50.082;18.554;2024-01-16T03:53:18;8.4;;;4.9;;
23360;SDS011;11852;50.082;18.554;2024-01-16T03:54:23;7.4;;;4.3;;
23360;SDS011;11852;50.082;18.554;2024-01-16T03:55:28;8.4;;;4.4;;
23360;SDS011;11852;50.082;18.554;2024-01-16T03:56:33;6.8;;;4.0;;
23360;SDS011;11852;50.082;18.554;2024-01-16T03:57:37;6.3;;;3.4;;
23360;SDS011;11852;50.082;18.554;2024-01-16T03:58:42;6.2;;;3.1;;
23360;SDS011;11852;50.082;18.554;2024-01-16T03:59:47;5.5;;;3.1;;
23360;SDS011;11852;50.082;18.554;2024-01-16T04:00:52;7.2;;;3.6;;
23360;SDS011;11852;50.082;18.554;2024-01-16T04:01:57;8.3;;;4.7;;
23360;SDS011;11852;50.082;18.554;2024-01-16T04:03:01;7.0;;;3.8;;
23360;SDS011;11852;50.082;18.554;2024-01-16T04:04:06;6.5;;;3.5;;
23360;SDS011;11852;50.082;18.554;2024-01-16T04:05:12;6.6;;;3.4;;
23360;SDS011;11852;50.082;18.554;2024-01-16T04:06:16;7.5;;;4.0;;
23360;SDS011;11852;50.082;18.554;2024-01-16T04:07:22;6.3;;;3.2;;
23360;SDS011;11852;50.082;18.554;2024-01-16T04:08:25;7.1;;;3.5;;
23360;SDS011;11852;50.082;18.554;2024-01-16T04:09:30;7.8;;;3.1;;
23360;SDS011;11852;50.082;18.554;2024-01-16T04:11:36;7.8;;;3.1;;
23360;SDS011;11852;50.082;18.554;2024-01-16T04:13:38;7.8;;;3.1;;
23360;SDS011;11852;50.082;18.554;2024-01-16T04:14:43;7.2;;;3.2;;
23360;SDS011;11852;50.082;18.554;2024-01-16T04:15:48;5.1;;;2.6;;
23360;SDS011;11852;50.082;18.554;2024-01-16T04:16:53;5.1;;;2.6;;
23360;SDS011;11852;50.082;18.554;2024-01-16T04:17:57;5.1;;;2.6;;
23360;SDS011;11852;50.082;18.554;2024-01-16T04:19:02;5.9;;;2.9;;
23360;SDS011;11852;50.082;18.554;2024-01-16T04:20:10;5.5;;;2.8;;
23360;SDS011;11852;50.082;18.554;2024-01-16T04:21:15;5.2;;;3.0;;
23360;SDS011;11852;50.082;18.554;2024-01-16T04:22:20;5.6;;;3.0;;
23360;SDS011;11852;50.082;18.554;2024-01-16T04:23:25;5.8;;;3.2;;
23360;SDS011;11852;50.082;18.554;2024-01-16T04:24:29;6.0;;;3.2;;
23360;SDS011;11852;50.082;18.554;2024-01-16T04:25:34;5.9;;;3.2;;
23360;SDS011;11852;50.082;18.554;2024-01-16T04:26:39;6.2;;;3.4;;
23360;SDS011;11852;50.082;18.554;2024-01-16T04:27:44;6.5;;;3.5;;
23360;SDS011;11852;50.082;18.554;2024-01-16T04:28:48;7.2;;;3.3;;
23360;SDS011;11852;50.082;18.554;2024-01-16T04:29:53;6.5;;;3.3;;
23360;SDS011;11852;50.082;18.554;2024-01-16T04:30:58;6.8;;;3.3;;
23360;SDS011;11852;50.082;18.554;2024-01-16T04:32:03;5.3;;;2.8;;
23360;SDS011;11852;50.082;18.554;2024-01-16T04:33:08;6.7;;;3.4;;
23360;SDS011;11852;50.082;18.554;2024-01-16T04:34:13;6.5;;;3.4;;
23360;SDS011;11852;50.082;18.554;2024-01-16T04:35:18;6.4;;;3.4;;
23360;SDS011;11852;50.082;18.554;2024-01-16T04:36:22;6.5;;;3.4;;
23360;SDS011;11852;50.082;18.554;2024-01-16T04:37:30;6.8;;;3.3;;
23360;SDS011;11852;50.082;18.554;2024-01-16T04:38:35;6.9;;;3.5;;
23360;SDS011;11852;50.082;18.554;2024-01-16T04:39:40;6.2;;;3.1;;
23360;SDS011;11852;50.082;18.554;2024-01-16T04:40:44;6.3;;;2.9;;
23360;SDS011;11852;50.082;18.554;2024-01-16T04:41:49;6.7;;;3.3;;
23360;SDS011;11852;50.082;18.554;2024-01-16T04:42:54;6.3;;;3.3;;
23360;SDS011;11852;50.082;18.554;2024-01-16T04:43:59;10.3;;;4.9;;
23360;SDS011;11852;50.082;18.554;2024-01-16T04:45:04;10.4;;;4.4;;
23360;SDS011;11852;50.082;18.554;2024-01-16T04:46:09;8.5;;;4.1;;
23360;SDS011;11852;50.082;18.554;2024-01-16T04:47:13;7.0;;;3.4;;
23360;SDS011;11852;50.082;18.554;2024-01-16T04:48:18;7.3;;;3.7;;
23360;SDS011;11852;50.082;18.554;2024-01-16T04:49:23;8.1;;;3.9;;
23360;SDS011;11852;50.082;18.554;2024-01-16T04:50:28;8.0;;;4.2;;
23360;SDS011;11852;50.082;18.554;2024-01-16T04:51:33;8.7;;;4.6;;
23360;SDS011;11852;50.082;18.554;2024-01-16T04:52:40;7.5;;;3.7;;
23360;SDS011;11852;50.082;18.554;2024-01-16T04:53:45;7.5;;;4.2;;
23360;SDS011;11852;50.082;18.554;2024-01-16T04:54:50;7.8;;;3.8;;
23360;SDS011;11852;50.082;18.554;2024-01-16T04:55:57;9.6;;;4.8;;
23360;SDS011;11852;50.082;18.554;2024-01-16T04:57:02;7.8;;;3.9;;
23360;SDS011;11852;50.082;18.554;2024-01-16T04:58:07;7.7;;;3.9;;
23360;SDS011;11852;50.082;18.554;2024-01-16T04:59:12;7.8;;;4.5;;
23360;SDS011;11852;50.082;18.554;2024-01-16T05:00:16;9.9;;;4.5;;
23360;SDS011;11852;50.082;18.554;2024-01-16T05:01:21;8.7;;;4.2;;
23360;SDS011;11852;50.082;18.554;2024-01-16T05:02:26;7.1;;;3.5;;
23360;SDS011;11852;50.082;18.554;2024-01-16T05:03:31;7.8;;;3.5;;
23360;SDS011;11852;50.082;18.554;2024-01-16T05:04:36;7.4;;;3.4;;
23360;SDS011;11852;50.082;18.554;2024-01-16T05:05:41;7.4;;;3.4;;
23360;SDS011;11852;50.082;18.554;2024-01-16T05:06:49;10.0;;;4.3;;
23360;SDS011;11852;50.082;18.554;2024-01-16T05:07:50;8.8;;;4.6;;
23360;SDS011;11852;50.082;18.554;2024-01-16T05:08:55;9.3;;;4.9;;
23360;SDS011;11852;50.082;18.554;2024-01-16T05:10:00;8.8;;;4.6;;
23360;SDS011;11852;50.082;18.554;2024-01-16T05:11:05;9.7;;;4.2;;
23360;SDS011;11852;50.082;18.554;2024-01-16T05:12:09;8.3;;;4.2;;
23360;SDS011;11852;50.082;18.554;2024-01-16T05:13:14;8.0;;;4.3;;
23360;SDS011;11852;50.082;18.554;2024-01-16T05:14:19;7.3;;;4.2;;
23360;SDS011;11852;50.082;18.554;2024-01-16T05:15:24;8.5;;;4.6;;
23360;SDS011;11852;50.082;18.554;2024-01-16T05:16:29;8.2;;;4.7;;
23360;SDS011;11852;50.082;18.554;2024-01-16T05:17:34;8.8;;;4.7;;
23360;SDS011;11852;50.082;18.554;2024-01-16T05:18:41;8.1;;;5.0;;
23360;SDS011;11852;50.082;18.554;2024-01-16T05:19:43;11.0;;;6.1;;
23360;SDS011;11852;50.082;18.554;2024-01-16T05:20:48;11.1;;;7.0;;
23360;SDS011;11852;50.082;18.554;2024-01-16T05:21:53;11.7;;;6.8;;
23360;SDS011;11852;50.082;18.554;2024-01-16T05:22:58;10.0;;;5.5;;
23360;SDS011;11852;50.082;18.554;2024-01-16T05:24:03;10.9;;;5.6;;
23360;SDS011;11852;50.082;18.554;2024-01-16T05:25:08;10.8;;;5.9;;
23360;SDS011;11852;50.082;18.554;2024-01-16T05:26:13;10.9;;;5.5;;
23360;SDS011;11852;50.082;18.554;2024-01-16T05:27:18;13.6;;;6.6;;
23360;SDS011;11852;50.082;18.554;2024-01-16T05:28:22;15.1;;;8.1;;
23360;SDS011;11852;50.082;18.554;2024-01-16T05:29:27;14.3;;;7.2;;
23360;SDS011;11852;50.082;18.554;2024-01-16T05:30:32;15.0;;;7.6;;
23360;SDS011;11852;50.082;18.554;2024-01-16T05:31:40;14.6;;;7.5;;
23360;SDS011;11852;50.082;18.554;2024-01-16T05:32:45;14.6;;;7.5;;
23360;SDS011;11852;50.082;18.554;2024-01-16T05:33:50;14.6;;;7.5;;
23360;SDS011;11852;50.082;18.554;2024-01-16T05:34:55;12.6;;;6.5;;
23360;SDS011;11852;50.082;18.554;2024-01-16T05:36:00;14.2;;;7.0;;
23360;SDS011;11852;50.082;18.554;2024-01-16T05:37:04;14.6;;;7.3;;
23360;SDS011;11852;50.082;18.554;2024-01-16T05:38:09;14.7;;;7.1;;
23360;SDS011;11852;50.082;18.554;2024-01-16T05:39:14;13.1;;;6.4;;
23360;SDS011;11852;50.082;18.554;2024-01-16T05:40:19;12.9;;;6.8;;
23360;SDS011;11852;50.082;18.554;2024-01-16T05:41:24;12.2;;;6.5;;
23360;SDS011;11852;50.082;18.554;2024-01-16T05:42:29;16.9;;;8.5;;
23360;SDS011;11852;50.082;18.554;2024-01-16T05:43:33;23.3;;;11.2;;
23360;SDS011;11852;50.082;18.554;2024-01-16T05:44:38;26.5;;;12.8;;
23360;SDS011;11852;50.082;18.554;2024-01-16T05:45:43;32.2;;;14.9;;
23360;SDS011;11852;50.082;18.554;2024-01-16T05:46:48;38.5;;;17.5;;
23360;SDS011;11852;50.082;18.554;2024-01-16T05:47:53;43.8;;;17.0;;
23360;SDS011;11852;50.082;18.554;2024-01-16T05:48:57;36.3;;;14.4;;
23360;SDS011;11852;50.082;18.554;2024-01-16T05:50:03;33.4;;;13.7;;
23360;SDS011;11852;50.082;18.554;2024-01-16T05:51:08;22.6;;;9.4;;
23360;SDS011;11852;50.082;18.554;2024-01-16T05:52:13;21.8;;;8.9;;
23360;SDS011;11852;50.082;18.554;2024-01-16T05:53:18;22.1;;;8.8;;
23360;SDS011;11852;50.082;18.554;2024-01-16T05:54:23;18.6;;;7.9;;
23360;SDS011;11852;50.082;18.554;2024-01-16T05:55:28;25.0;;;9.2;;
23360;SDS011;11852;50.082;18.554;2024-01-16T05:56:32;25.0;;;9.2;;
23360;SDS011;11852;50.082;18.554;2024-01-16T05:57:37;36.4;;;12.7;;
23360;SDS011;11852;50.082;18.554;2024-01-16T05:58:42;33.7;;;12.1;;
23360;SDS011;11852;50.082;18.554;2024-01-16T05:59:46;27.4;;;11.3;;
23360;SDS011;11852;50.082;18.554;2024-01-16T06:00:51;18.9;;;8.8;;
23360;SDS011;11852;50.082;18.554;2024-01-16T06:01:56;20.4;;;9.2;;
23360;SDS011;11852;50.082;18.554;2024-01-16T06:03:01;22.3;;;9.5;;
23360;SDS011;11852;50.082;18.554;2024-01-16T06:04:05;22.0;;;9.7;;
23360;SDS011;11852;50.082;18.554;2024-01-16T06:05:10;19.8;;;9.3;;
23360;SDS011;11852;50.082;18.554;2024-01-16T06:06:15;21.5;;;9.7;;
23360;SDS011;11852;50.082;18.554;2024-01-16T06:07:19;22.7;;;9.2;;
23360;SDS011;11852;50.082;18.554;2024-01-16T06:08:24;20.3;;;8.8;;
23360;SDS011;11852;50.082;18.554;2024-01-16T06:09:29;28.6;;;12.0;;
23360;SDS011;11852;50.082;18.554;2024-01-16T06:10:34;34.2;;;11.6;;
23360;SDS011;11852;50.082;18.554;2024-01-16T06:11:38;27.9;;;10.9;;
23360;SDS011;11852;50.082;18.554;2024-01-16T06:12:43;28.6;;;10.6;;
23360;SDS011;11852;50.082;18.554;2024-01-16T06:13:48;28.0;;;10.6;;
23360;SDS011;11852;50.082;18.554;2024-01-16T06:14:53;20.0;;;8.8;;
23360;SDS011;11852;50.082;18.554;2024-01-16T06:15:58;16.3;;;7.8;;
23360;SDS011;11852;50.082;18.554;2024-01-16T06:17:02;15.1;;;6.7;;
23360;SDS011;11852;50.082;18.554;2024-01-16T06:18:07;14.0;;;6.7;;
23360;SDS011;11852;50.082;18.554;2024-01-16T06:19:12;18.3;;;8.4;;
23360;SDS011;11852;50.082;18.554;2024-01-16T06:20:16;20.6;;;8.2;;
23360;SDS011;11852;50.082;18.554;2024-01-16T06:21:21;18.6;;;8.2;;
23360;SDS011;11852;50.082;18.554;2024-01-16T06:22:26;15.0;;;6.8;;
23360;SDS011;11852;50.082;18.554;2024-01-16T06:23:30;12.9;;;6.4;;
23360;SDS011;11852;50.082;18.554;2024-01-16T06:24:35;13.2;;;6.0;;
23360;SDS011;11852;50.082;18.554;2024-01-16T06:25:40;17.6;;;8.1;;
23360;SDS011;11852;50.082;18.554;2024-01-16T06:26:44;20.3;;;9.1;;
23360;SDS011;11852;50.082;18.554;2024-01-16T06:27:49;18.8;;;8.8;;
23360;SDS011;11852;50.082;18.554;2024-01-16T06:28:54;22.2;;;9.8;;
23360;SDS011;11852;50.082;18.554;2024-01-16T06:29:59;19.5;;;8.8;;
23360;SDS011;11852;50.082;18.554;2024-01-16T06:31:04;16.2;;;7.8;;
23360;SDS011;11852;50.082;18.554;2024-01-16T06:32:08;17.2;;;8.1;;
23360;SDS011;11852;50.082;18.554;2024-01-16T06:33:13;15.3;;;7.6;;
23360;SDS011;11852;50.082;18.554;2024-01-16T06:34:18;14.5;;;7.6;;
23360;SDS011;11852;50.082;18.554;2024-01-16T06:35:22;15.5;;;7.7;;
23360;SDS011;11852;50.082;18.554;2024-01-16T06:36:27;15.5;;;7.6;;
23360;SDS011;11852;50.082;18.554;2024-01-16T06:37:32;15.6;;;7.6;;
23360;SDS011;11852;50.082;18.554;2024-01-16T06:38:38;13.9;;;7.1;;
23360;SDS011;11852;50.082;18.554;2024-01-16T06:39:41;15.2;;;7.3;;
23360;SDS011;11852;50.082;18.554;2024-01-16T06:40:46;16.4;;;8.2;;